»·PEaware :: N349ME KKNB-KLGB

N349ME :: KKNB-KLGB

FLIGHT INFORMATION

Flight Status: Arrived
Operator: Privately registered:
United States
More flights under this callsign
Pilot: Niels F. (16168)
Aircraft: CESSNA 172 SKYHAWK
(C172)
More flights by this aircraft type
Origin: KKNB Kanab Mun
United States
Destination: KLGB Long Beach
United States
More flights between these airports :: More routes between these airports
Route: GFS HEC APLES COVIN
File this flight plan on PilotEdge
Remarks:
Altitude:
(Current/Filed)
10,500ft
Speed:
(Current/Filed)
90kts
Departed: 14-Sep-18 10:58 AM
Arrived: 14-Sep-18 02:49 PM
Distance/Time
Traveled:
335nm/3:51
Distance/Time
To Go:
Arrived

Flight Plot

Page will automatically refresh every two minutes.

Flight plan parsing failed; only flown route is shown


Map Options




Map Legend


Flown Route
Filed Route
Departure Airport
Arrival Airport
Navaid (VOR, NDB)
Fix

Horizontal Profiles

Position Reports

Time Latitude Longitude Heading Altitude Ground
Speed
14-Sep-18 10:43 37.010732 -112.529111 343 4872ft 0kts
14-Sep-18 10:44 37.010732 -112.529111 343 4872ft 0kts
14-Sep-18 10:45 37.010732 -112.529111 343 4872ft 0kts
14-Sep-18 10:46 37.010732 -112.529111 343 4872ft 0kts
14-Sep-18 10:47 37.010732 -112.529111 343 4872ft 0kts
14-Sep-18 10:48 37.010732 -112.529111 343 4872ft 0kts
14-Sep-18 10:49 37.010732 -112.529111 343 4872ft 0kts
14-Sep-18 10:50 37.010732 -112.529111 343 4872ft 0kts
14-Sep-18 10:51 37.010732 -112.529111 343 4872ft 0kts
14-Sep-18 10:52 37.010732 -112.529111 343 4872ft 0kts
14-Sep-18 10:53 37.010732 -112.529111 343 4872ft 0kts
14-Sep-18 10:54 37.010618 -112.530262 276 4872ft 5kts
14-Sep-18 10:55 37.010963 -112.530419 353 4872ft 0kts
14-Sep-18 10:56 37.010963 -112.530419 353 4872ft 0kts
14-Sep-18 10:57 37.012148 -112.530580 353 4872ft 12kts
14-Sep-18 10:58 37.016078 -112.528844 24 4872ft 17kts
14-Sep-18 10:59 37.018212 -112.527816 217 4872ft 6kts
14-Sep-18 11:00 37.007153 -112.533841 200 5053ft 65kts
14-Sep-18 11:01 36.990430 -112.545339 221 5470ft 76kts
14-Sep-18 11:02 36.978550 -112.567099 235 5990ft 76kts
14-Sep-18 11:03 36.968874 -112.590822 237 6464ft 77kts
14-Sep-18 11:04 36.957680 -112.614476 223 6862ft 82kts
14-Sep-18 11:05 36.943661 -112.635922 222 7317ft 79kts
14-Sep-18 11:06 36.928525 -112.655682 219 7739ft 79kts
14-Sep-18 11:07 36.913672 -112.675934 221 8150ft 78kts
14-Sep-18 11:08 36.899544 -112.696884 225 8540ft 79kts
14-Sep-18 11:09 36.885605 -112.718176 223 8944ft 78kts
14-Sep-18 11:10 36.871433 -112.739235 225 9337ft 78kts
14-Sep-18 11:11 36.859940 -112.757113 225 9650ft 79kts
14-Sep-18 11:12 36.842856 -112.780824 222 10083ft 79kts
14-Sep-18 11:13 36.830303 -112.797517 218 10404ft 77kts
14-Sep-18 11:14 36.813429 -112.818853 221 10535ft 97kts
14-Sep-18 11:15 36.791546 -112.845798 220 10492ft 88kts
14-Sep-18 11:16 36.777620 -112.864060 223 10490ft 89kts
14-Sep-18 11:17 36.760958 -112.887669 224 10490ft 91kts
14-Sep-18 11:18 36.744215 -112.911668 224 10489ft 91kts
14-Sep-18 11:19 36.727736 -112.935605 224 10489ft 91kts
14-Sep-18 11:20 36.711348 -112.959736 224 10489ft 91kts
14-Sep-18 11:21 36.695155 -112.983920 224 10489ft 90kts
14-Sep-18 11:22 36.679199 -113.008099 224 10489ft 90kts
14-Sep-18 11:23 36.663399 -113.032399 224 10489ft 90kts
14-Sep-18 11:24 36.647820 -113.056681 225 10489ft 89kts
14-Sep-18 11:25 36.632286 -113.081022 225 10489ft 89kts
14-Sep-18 11:26 36.616796 -113.105390 225 10489ft 89kts
14-Sep-18 11:27 36.601301 -113.129861 225 10489ft 89kts
14-Sep-18 11:28 36.588082 -113.156458 237 10489ft 92kts
14-Sep-18 11:29 36.577531 -113.185665 237 10489ft 92kts
14-Sep-18 11:30 36.567031 -113.214883 238 10489ft 92kts
14-Sep-18 11:31 36.556537 -113.244231 238 10489ft 92kts
14-Sep-18 11:32 36.546131 -113.273489 238 10489ft 92kts
14-Sep-18 11:33 36.535721 -113.302917 238 10478ft 93kts
14-Sep-18 11:34 36.525302 -113.332640 238 10461ft 94kts
14-Sep-18 11:35 36.514933 -113.362515 238 10444ft 94kts
14-Sep-18 11:36 36.504590 -113.392605 238 10426ft 95kts
14-Sep-18 11:37 36.494238 -113.423020 238 10409ft 94kts
14-Sep-18 11:38 36.484138 -113.452963 241 10395ft 92kts
14-Sep-18 11:39 36.471977 -113.479420 239 10375ft 85kts
14-Sep-18 11:40 36.460266 -113.504817 239 10360ft 84kts
14-Sep-18 11:41 36.448804 -113.530026 239 10350ft 83kts
14-Sep-18 11:42 36.437528 -113.555009 239 10350ft 83kts
14-Sep-18 11:43 36.426095 -113.580434 239 10350ft 85kts
14-Sep-18 11:44 36.414569 -113.606172 239 10349ft 85kts
14-Sep-18 11:45 36.403019 -113.632078 239 10349ft 85kts
14-Sep-18 11:46 36.391559 -113.657881 239 10352ft 86kts
14-Sep-18 11:47 36.380011 -113.683919 239 10352ft 86kts
14-Sep-18 11:48 36.368449 -113.710118 239 10352ft 86kts
14-Sep-18 11:49 36.356912 -113.736383 239 10352ft 86kts
14-Sep-18 11:50 36.345480 -113.762528 239 10351ft 86kts
14-Sep-18 11:51 36.334060 -113.788770 239 10351ft 86kts
14-Sep-18 11:52 36.322661 -113.815087 239 10351ft 86kts
14-Sep-18 11:53 36.311318 -113.841414 240 10350ft 86kts
14-Sep-18 11:54 36.300066 -113.867765 240 10347ft 86kts
14-Sep-18 11:55 36.289310 -113.893373 240 10432ft 79kts
14-Sep-18 11:56 36.278970 -113.918585 240 10448ft 86kts
14-Sep-18 11:57 36.267918 -113.945832 240 10441ft 89kts
14-Sep-18 11:58 36.256901 -113.973458 240 10433ft 89kts
14-Sep-18 11:59 36.245999 -114.001383 240 10423ft 90kts
14-Sep-18 12:00 36.235250 -114.029567 240 10413ft 90kts
14-Sep-18 12:01 36.224721 -114.057832 240 10404ft 90kts
14-Sep-18 12:02 36.214542 -114.085894 241 10396ft 86kts
14-Sep-18 12:03 36.199364 -114.106364 208 10389ft 81kts
14-Sep-18 12:04 36.179099 -114.119397 208 10383ft 83kts
14-Sep-18 12:05 36.159056 -114.132484 208 10424ft 82kts
14-Sep-18 12:06 36.138650 -114.145909 208 10427ft 83kts
14-Sep-18 12:07 36.118063 -114.159434 208 10431ft 84kts
14-Sep-18 12:08 36.097443 -114.172974 208 10433ft 84kts
14-Sep-18 12:09 36.076782 -114.186588 208 10434ft 84kts
14-Sep-18 12:10 36.056130 -114.200263 208 10433ft 84kts
14-Sep-18 12:11 36.035434 -114.214053 208 10431ft 84kts
14-Sep-18 12:12 36.014806 -114.227933 208 10427ft 84kts
14-Sep-18 12:13 35.994266 -114.241930 209 10422ft 84kts
14-Sep-18 12:14 35.972567 -114.256869 209 10172ft 102kts
14-Sep-18 12:15 35.946157 -114.275078 209 9658ft 111kts
14-Sep-18 12:16 35.918864 -114.293848 209 9141ft 113kts
14-Sep-18 12:17 35.891460 -114.312677 209 8633ft 114kts
14-Sep-18 12:18 35.865617 -114.330639 209 8479ft 103kts
14-Sep-18 12:19 35.842078 -114.347805 209 8490ft 94kts
14-Sep-18 12:20 35.819975 -114.364004 209 8496ft 90kts
14-Sep-18 12:21 35.798506 -114.379784 210 8502ft 89kts
14-Sep-18 12:22 35.777223 -114.395476 210 8506ft 89kts
14-Sep-18 12:23 35.756061 -114.411138 210 8508ft 89kts
14-Sep-18 12:24 35.734862 -114.426893 210 8508ft 89kts
14-Sep-18 12:25 35.713670 -114.442721 210 8505ft 89kts
14-Sep-18 12:26 35.692512 -114.458604 210 8500ft 89kts
14-Sep-18 12:27 35.671262 -114.474731 213 8491ft 90kts
14-Sep-18 12:28 35.651423 -114.493676 218 8479ft 90kts
14-Sep-18 12:29 35.632684 -114.514164 221 8471ft 90kts
14-Sep-18 12:30 35.616049 -114.537430 223 8465ft 90kts
14-Sep-18 12:31 35.595860 -114.554139 225 8457ft 90kts
14-Sep-18 12:32 35.579006 -114.576885 225 8450ft 90kts
14-Sep-18 12:33 35.562202 -114.599565 225 8443ft 89kts
14-Sep-18 12:34 35.545510 -114.622105 225 8452ft 88kts
14-Sep-18 12:35 35.528889 -114.644493 225 8448ft 89kts
14-Sep-18 12:36 35.512217 -114.666927 225 8445ft 89kts
14-Sep-18 12:37 35.495501 -114.689431 225 8445ft 89kts
14-Sep-18 12:38 35.478902 -114.711755 225 8463ft 88kts
14-Sep-18 12:39 35.462256 -114.734135 225 8465ft 89kts
14-Sep-18 12:40 35.445553 -114.756578 225 8467ft 89kts
14-Sep-18 12:41 35.428846 -114.779011 225 8469ft 89kts
14-Sep-18 12:42 35.412087 -114.801496 225 8470ft 89kts
14-Sep-18 12:43 35.395348 -114.823935 225 8469ft 89kts
14-Sep-18 12:44 35.378566 -114.846421 225 8467ft 89kts
14-Sep-18 12:45 35.361785 -114.868893 225 8463ft 89kts
14-Sep-18 12:46 35.345066 -114.891274 225 8462ft 89kts
14-Sep-18 12:47 35.328350 -114.913625 225 8462ft 89kts
14-Sep-18 12:48 35.311749 -114.935801 225 8480ft 88kts
14-Sep-18 12:49 35.295105 -114.958028 225 8480ft 88kts
14-Sep-18 12:50 35.278426 -114.980288 225 8480ft 88kts
14-Sep-18 12:51 35.261671 -115.002633 225 8480ft 88kts
14-Sep-18 12:52 35.244999 -115.024854 225 8480ft 88kts
14-Sep-18 12:53 35.228310 -115.047086 225 8480ft 88kts
14-Sep-18 12:54 35.211588 -115.069354 226 8480ft 88kts
14-Sep-18 12:55 35.194864 -115.091604 226 8480ft 88kts
14-Sep-18 12:56 35.178145 -115.113826 225 8480ft 88kts
14-Sep-18 12:57 35.161408 -115.136051 225 8481ft 89kts
14-Sep-18 12:58 35.144650 -115.158302 224 8482ft 89kts
14-Sep-18 12:59 35.129496 -115.182065 246 8483ft 92kts
14-Sep-18 13:00 35.121924 -115.212165 246 8484ft 93kts
14-Sep-18 13:01 35.114234 -115.242534 246 8484ft 93kts
14-Sep-18 13:02 35.106524 -115.272909 246 8484ft 94kts
14-Sep-18 13:03 35.098735 -115.303441 245 8479ft 95kts
14-Sep-18 13:04 35.090714 -115.334878 245 8479ft 97kts
14-Sep-18 13:05 35.082628 -115.366625 244 8479ft 98kts
14-Sep-18 13:06 35.074494 -115.398486 244 8479ft 98kts
14-Sep-18 13:07 35.066279 -115.430611 244 8477ft 99kts
14-Sep-18 13:08 35.058032 -115.462825 244 8482ft 100kts
14-Sep-18 13:09 35.049664 -115.495437 245 8493ft 101kts
14-Sep-18 13:10 35.041172 -115.528510 245 8507ft 103kts
14-Sep-18 13:11 35.032567 -115.562003 246 8524ft 104kts
14-Sep-18 13:12 35.023821 -115.596004 246 8543ft 105kts
14-Sep-18 13:13 35.015029 -115.630136 247 8561ft 106kts
14-Sep-18 13:14 35.006958 -115.661619 252 8578ft 93kts
14-Sep-18 13:15 34.999357 -115.690945 252 8591ft 91kts
14-Sep-18 13:16 34.991558 -115.721001 245 8584ft 96kts
14-Sep-18 13:17 34.982786 -115.754462 246 8586ft 107kts
14-Sep-18 13:18 34.973993 -115.788836 246 8584ft 105kts
14-Sep-18 13:19 34.965179 -115.822834 246 8583ft 104kts
14-Sep-18 13:20 34.956412 -115.856547 246 8583ft 104kts
14-Sep-18 13:21 34.947684 -115.890076 246 8582ft 103kts
14-Sep-18 13:22 34.938971 -115.923511 246 8582ft 103kts
14-Sep-18 13:23 34.930202 -115.957110 246 8583ft 104kts
14-Sep-18 13:24 34.921429 -115.990684 247 8584ft 104kts
14-Sep-18 13:25 34.914054 -116.018886 247 8585ft 105kts
14-Sep-18 13:26 34.903686 -116.058482 247 8587ft 105kts
14-Sep-18 13:27 34.894895 -116.091983 252 8591ft 103kts
14-Sep-18 13:28 34.888105 -116.118066 252 8589ft 93kts
14-Sep-18 13:29 34.878896 -116.152969 252 8590ft 93kts
14-Sep-18 13:30 34.872289 -116.178060 252 8588ft 93kts
14-Sep-18 13:31 34.864354 -116.208187 252 8582ft 93kts
14-Sep-18 13:32 34.855082 -116.243348 252 8575ft 93kts
14-Sep-18 13:33 34.848470 -116.268391 252 8570ft 93kts
14-Sep-18 13:34 34.840502 -116.298538 252 8565ft 93kts
14-Sep-18 13:35 34.832545 -116.328614 252 8559ft 93kts
14-Sep-18 13:36 34.824539 -116.358835 252 8553ft 93kts
14-Sep-18 13:37 34.816566 -116.388900 252 8547ft 93kts
14-Sep-18 13:38 34.808585 -116.418958 252 8544ft 93kts
14-Sep-18 13:39 34.800623 -116.448908 252 8544ft 93kts
14-Sep-18 13:40 34.791416 -116.478225 247 8544ft 93kts
14-Sep-18 13:41 34.781001 -116.507276 247 8544ft 93kts
14-Sep-18 13:42 34.770661 -116.536126 247 8544ft 93kts
14-Sep-18 13:43 34.760321 -116.564923 247 8544ft 93kts
14-Sep-18 13:44 34.750195 -116.593909 248 8544ft 93kts
14-Sep-18 13:45 34.739626 -116.622728 246 8544ft 93kts
14-Sep-18 13:46 34.729163 -116.651492 246 8544ft 93kts
14-Sep-18 13:47 34.718872 -116.680043 246 8545ft 93kts
14-Sep-18 13:48 34.708427 -116.709004 246 8545ft 93kts
14-Sep-18 13:49 34.697976 -116.737951 246 8545ft 93kts
14-Sep-18 13:50 34.687552 -116.766792 246 8545ft 93kts
14-Sep-18 13:51 34.677062 -116.795791 246 8545ft 93kts
14-Sep-18 13:52 34.666514 -116.824922 246 8503ft 97kts
14-Sep-18 13:53 34.655775 -116.854595 246 8490ft 94kts
14-Sep-18 13:54 34.645199 -116.883722 246 8490ft 93kts
14-Sep-18 13:55 34.634732 -116.912538 246 8495ft 93kts
14-Sep-18 13:56 34.624327 -116.941164 246 8501ft 92kts
14-Sep-18 13:57 34.613953 -116.969681 246 8506ft 91kts
14-Sep-18 13:58 34.603708 -116.997820 246 8512ft 91kts
14-Sep-18 13:59 34.593495 -117.025850 246 8517ft 90kts
14-Sep-18 14:00 34.583354 -117.053652 246 8522ft 89kts
14-Sep-18 14:01 34.573317 -117.081146 246 8527ft 89kts
14-Sep-18 14:02 34.563314 -117.108526 247 8532ft 88kts
14-Sep-18 14:03 34.553360 -117.135748 246 8533ft 88kts
14-Sep-18 14:04 34.539874 -117.160173 229 8528ft 89kts
14-Sep-18 14:05 34.522588 -117.182063 222 8504ft 90kts
14-Sep-18 14:06 34.505361 -117.203874 222 8499ft 89kts
14-Sep-18 14:07 34.488252 -117.225518 222 8497ft 88kts
14-Sep-18 14:08 34.471155 -117.247092 222 8496ft 90kts
14-Sep-18 14:09 34.453636 -117.269178 222 8496ft 91kts
14-Sep-18 14:10 34.436033 -117.291410 222 8498ft 91kts
14-Sep-18 14:11 34.418384 -117.313672 222 8502ft 92kts
14-Sep-18 14:12 34.400706 -117.335950 222 8508ft 92kts
14-Sep-18 14:13 34.383980 -117.356965 222 8618ft 89kts
14-Sep-18 14:14 34.362848 -117.372497 207 8609ft 90kts
14-Sep-18 14:15 34.340663 -117.387052 207 8597ft 91kts
14-Sep-18 14:16 34.318226 -117.401338 207 8585ft 91kts
14-Sep-18 14:17 34.295803 -117.415176 207 8574ft 91kts
14-Sep-18 14:18 34.272436 -117.427341 202 8562ft 92kts
14-Sep-18 14:19 34.247310 -117.438338 203 8344ft 108kts
14-Sep-18 14:20 34.217717 -117.451810 212 7837ft 116kts
14-Sep-18 14:21 34.192753 -117.474106 223 7326ft 108kts
14-Sep-18 14:22 34.173428 -117.501019 241 6812ft 106kts
14-Sep-18 14:23 34.160074 -117.531366 241 6536ft 91kts
14-Sep-18 14:24 34.153875 -117.560520 254 6537ft 90kts
14-Sep-18 14:25 34.148581 -117.590047 254 6536ft 90kts
14-Sep-18 14:26 34.143472 -117.619577 255 6536ft 90kts
14-Sep-18 14:27 34.138316 -117.649061 255 6538ft 90kts
14-Sep-18 14:28 34.133649 -117.675137 254 6542ft 90kts
14-Sep-18 14:29 34.125647 -117.703672 246 6543ft 90kts
14-Sep-18 14:30 34.115872 -117.731746 246 6545ft 91kts
14-Sep-18 14:31 34.106016 -117.759821 246 6546ft 91kts
14-Sep-18 14:32 34.096009 -117.788078 246 6548ft 91kts
14-Sep-18 14:33 34.085854 -117.816490 246 6550ft 92kts
14-Sep-18 14:34 34.075634 -117.844798 246 6551ft 92kts
14-Sep-18 14:35 34.058088 -117.864340 180 6544ft 100kts
14-Sep-18 14:36 34.025932 -117.864337 184 5868ft 125kts
14-Sep-18 14:37 33.993504 -117.862463 179 5524ft 104kts
14-Sep-18 14:38 33.965006 -117.860197 179 5518ft 104kts
14-Sep-18 14:39 33.934600 -117.858374 180 5264ft 120kts
14-Sep-18 14:40 33.900415 -117.857942 195 4769ft 124kts
14-Sep-18 14:41 33.893749 -117.890052 273 4407ft 113kts
14-Sep-18 14:42 33.888409 -117.924242 259 4380ft 96kts
14-Sep-18 14:43 33.883112 -117.953905 259 4375ft 90kts
14-Sep-18 14:44 33.877570 -117.986008 260 4014ft 112kts
14-Sep-18 14:45 33.868163 -118.020742 244 3311ft 109kts
14-Sep-18 14:46 33.850175 -118.049121 227 2683ft 107kts
14-Sep-18 14:47 33.830606 -118.068596 221 2446ft 73kts
14-Sep-18 14:48 33.823169 -118.087752 262 1593ft 62kts
14-Sep-18 14:49 33.822580 -118.108743 271 1036ft 67kts
14-Sep-18 14:50 33.822654 -118.130429 271 451ft 67kts
14-Sep-18 14:51 33.822700 -118.150278 272 64ft 34kts
14-Sep-18 14:52 33.821846 -118.153859 212 64ft 0kts
14-Sep-18 14:53 33.821846 -118.153859 212 64ft 0kts
14-Sep-18 14:54 33.821846 -118.153859 212 64ft 0kts
14-Sep-18 14:55 33.821846 -118.153859 212 64ft 0kts
14-Sep-18 14:56 33.821846 -118.153859 212 64ft 0kts
14-Sep-18 14:57 33.821846 -118.153859 212 64ft 0kts
14-Sep-18 14:58 33.821846 -118.153859 212 64ft 0kts
14-Sep-18 14:59 33.821634 -118.154291 267 64ft 8kts
14-Sep-18 15:00 33.820453 -118.157302 178 64ft 16kts
14-Sep-18 15:01 33.816432 -118.157820 231 64ft 0kts
14-Sep-18 15:02 33.816432 -118.157820 231 64ft 0kts
14-Sep-18 15:03 33.816432 -118.157820 231 64ft 0kts

Navigation Log

Ident Type
Flight plan parsing failed, navigation log unavailable